sensor_id;sensor_type;location;lat;lon;timestamp;temperature;humidity
21891;DHT22;11110;52.386;16.940;2024-03-02T00:02:07;24.30;50.00
21891;DHT22;11110;52.386;16.940;2024-03-02T00:04:35;24.30;50.00
21891;DHT22;11110;52.386;16.940;2024-03-02T00:07:05;24.20;50.00
21891;DHT22;11110;52.386;16.940;2024-03-02T00:09:34;24.10;50.20
21891;DHT22;11110;52.386;16.940;2024-03-02T00:12:05;24.10;50.90
21891;DHT22;11110;52.386;16.940;2024-03-02T00:14:34;24.10;50.40
21891;DHT22;11110;52.386;16.940;2024-03-02T00:17:04;24.10;51.00
21891;DHT22;11110;52.386;16.940;2024-03-02T00:19:32;24.10;50.40
21891;DHT22;11110;52.386;16.940;2024-03-02T00:22:01;24.00;50.40
21891;DHT22;11110;52.386;16.940;2024-03-02T00:24:32;24.00;50.60
21891;DHT22;11110;52.386;16.940;2024-03-02T00:27:04;24.00;50.50
21891;DHT22;11110;52.386;16.940;2024-03-02T00:29:35;24.00;50.50
21891;DHT22;11110;52.386;16.940;2024-03-02T00:32:12;24.10;50.60
21891;DHT22;11110;52.386;16.940;2024-03-02T00:34:41;24.10;50.50
21891;DHT22;11110;52.386;16.940;2024-03-02T00:37:11;24.00;50.50
21891;DHT22;11110;52.386;16.940;2024-03-02T00:39:39;24.00;50.60
21891;DHT22;11110;52.386;16.940;2024-03-02T00:42:08;23.90;50.70
21891;DHT22;11110;52.386;16.940;2024-03-02T00:44:37;23.80;51.60
21891;DHT22;11110;52.386;16.940;2024-03-02T00:47:07;23.70;51.00
21891;DHT22;11110;52.386;16.940;2024-03-02T00:49:35;23.70;51.20
21891;DHT22;11110;52.386;16.940;2024-03-02T00:52:08;23.60;51.30
21891;DHT22;11110;52.386;16.940;2024-03-02T00:54:36;23.60;51.20
21891;DHT22;11110;52.386;16.940;2024-03-02T00:57:05;23.60;51.40
21891;DHT22;11110;52.386;16.940;2024-03-02T00:59:33;23.60;51.50
21891;DHT22;11110;52.386;16.940;2024-03-02T01:02:02;23.50;51.30
21891;DHT22;11110;52.386;16.940;2024-03-02T01:04:31;23.50;51.40
21891;DHT22;11110;52.386;16.940;2024-03-02T01:07:00;23.50;51.50
21891;DHT22;11110;52.386;16.940;2024-03-02T01:09:28;23.40;51.50
21891;DHT22;11110;52.386;16.940;2024-03-02T01:11:57;23.50;51.60
21891;DHT22;11110;52.386;16.940;2024-03-02T01:14:25;23.40;51.60
21891;DHT22;11110;52.386;16.940;2024-03-02T01:16:54;23.50;51.70
21891;DHT22;11110;52.386;16.940;2024-03-02T01:19:22;23.40;51.60
21891;DHT22;11110;52.386;16.940;2024-03-02T01:21:52;23.40;51.70
21891;DHT22;11110;52.386;16.940;2024-03-02T01:24:21;23.50;51.70
21891;DHT22;11110;52.386;16.940;2024-03-02T01:26:50;23.40;51.70
21891;DHT22;11110;52.386;16.940;2024-03-02T01:29:18;23.30;51.70
21891;DHT22;11110;52.386;16.940;2024-03-02T01:31:47;23.30;51.70
21891;DHT22;11110;52.386;16.940;2024-03-02T01:34:15;23.30;51.80
21891;DHT22;11110;52.386;16.940;2024-03-02T01:36:44;23.40;51.80
21891;DHT22;11110;52.386;16.940;2024-03-02T01:39:13;23.50;51.60
21891;DHT22;11110;52.386;16.940;2024-03-02T01:41:42;23.50;51.50
21891;DHT22;11110;52.386;16.940;2024-03-02T01:44:10;23.50;51.50
21891;DHT22;11110;52.386;16.940;2024-03-02T01:46:39;23.60;51.40
21891;DHT22;11110;52.386;16.940;2024-03-02T01:49:07;23.50;51.40
21891;DHT22;11110;52.386;16.940;2024-03-02T01:51:36;23.40;51.20
21891;DHT22;11110;52.386;16.940;2024-03-02T01:54:05;23.50;51.20
21891;DHT22;11110;52.386;16.940;2024-03-02T01:56:35;23.50;51.10
21891;DHT22;11110;52.386;16.940;2024-03-02T01:59:04;23.60;51.20
21891;DHT22;11110;52.386;16.940;2024-03-02T02:01:32;23.60;51.00
21891;DHT22;11110;52.386;16.940;2024-03-02T02:04:01;23.60;51.00
21891;DHT22;11110;52.386;16.940;2024-03-02T02:06:29;23.60;51.00
21891;DHT22;11110;52.386;16.940;2024-03-02T02:08:58;23.60;50.80
21891;DHT22;11110;52.386;16.940;2024-03-02T02:11:27;23.60;50.70
21891;DHT22;11110;52.386;16.940;2024-03-02T02:13:57;23.50;50.50
21891;DHT22;11110;52.386;16.940;2024-03-02T02:16:25;23.50;50.50
21891;DHT22;11110;52.386;16.940;2024-03-02T02:18:54;23.50;50.50
21891;DHT22;11110;52.386;16.940;2024-03-02T02:21:24;23.40;50.40
21891;DHT22;11110;52.386;16.940;2024-03-02T02:23:53;23.40;50.40
21891;DHT22;11110;52.386;16.940;2024-03-02T02:26:22;23.40;50.40
21891;DHT22;11110;52.386;16.940;2024-03-02T02:28:50;23.30;51.10
21891;DHT22;11110;52.386;16.940;2024-03-02T02:31:19;23.30;50.50
21891;DHT22;11110;52.386;16.940;2024-03-02T02:33:47;23.30;50.60
21891;DHT22;11110;52.386;16.940;2024-03-02T02:36:16;23.30;51.20
21891;DHT22;11110;52.386;16.940;2024-03-02T02:38:47;23.40;50.50
21891;DHT22;11110;52.386;16.940;2024-03-02T02:41:16;23.40;50.50
21891;DHT22;11110;52.386;16.940;2024-03-02T02:43:44;23.30;50.40
21891;DHT22;11110;52.386;16.940;2024-03-02T02:46:13;23.40;50.50
21891;DHT22;11110;52.386;16.940;2024-03-02T02:48:41;23.30;50.40
21891;DHT22;11110;52.386;16.940;2024-03-02T02:51:10;23.40;50.40
21891;DHT22;11110;52.386;16.940;2024-03-02T02:53:38;23.20;50.30
21891;DHT22;11110;52.386;16.940;2024-03-02T02:56:09;23.30;50.40
21891;DHT22;11110;52.386;16.940;2024-03-02T02:58:39;23.30;50.40
21891;DHT22;11110;52.386;16.940;2024-03-02T03:01:08;23.30;50.40
21891;DHT22;11110;52.386;16.940;2024-03-02T03:03:36;23.20;50.50
21891;DHT22;11110;52.386;16.940;2024-03-02T03:06:05;23.20;50.40
21891;DHT22;11110;52.386;16.940;2024-03-02T03:08:33;23.00;49.80
21891;DHT22;11110;52.386;16.940;2024-03-02T03:11:02;23.10;50.40
21891;DHT22;11110;52.386;16.940;2024-03-02T03:13:33;23.10;50.50
21891;DHT22;11110;52.386;16.940;2024-03-02T03:16:02;23.10;50.50
21891;DHT22;11110;52.386;16.940;2024-03-02T03:18:31;23.00;50.40
21891;DHT22;11110;52.386;16.940;2024-03-02T03:20:59;23.10;50.40
21891;DHT22;11110;52.386;16.940;2024-03-02T03:23:28;23.10;50.50
21891;DHT22;11110;52.386;16.940;2024-03-02T03:25:56;23.10;50.40
21891;DHT22;11110;52.386;16.940;2024-03-02T03:28:25;23.00;50.40
21891;DHT22;11110;52.386;16.940;2024-03-02T03:30:55;22.90;50.60
21891;DHT22;11110;52.386;16.940;2024-03-02T03:33:24;23.00;50.60
21891;DHT22;11110;52.386;16.940;2024-03-02T03:35:52;22.90;50.50
21891;DHT22;11110;52.386;16.940;2024-03-02T03:38:21;23.00;50.60
21891;DHT22;11110;52.386;16.940;2024-03-02T03:40:49;23.00;50.60
21891;DHT22;11110;52.386;16.940;2024-03-02T03:43:18;23.00;50.50
21891;DHT22;11110;52.386;16.940;2024-03-02T03:45:46;23.10;50.40
21891;DHT22;11110;52.386;16.940;2024-03-02T03:48:16;23.10;50.30
21891;DHT22;11110;52.386;16.940;2024-03-02T03:50:45;23.20;50.20
21891;DHT22;11110;52.386;16.940;2024-03-02T03:53:13;23.20;50.30
21891;DHT22;11110;52.386;16.940;2024-03-02T03:55:42;23.20;50.00
21891;DHT22;11110;52.386;16.940;2024-03-02T03:58:13;23.20;49.90
21891;DHT22;11110;52.386;16.940;2024-03-02T04:00:46;23.20;49.90
21891;DHT22;11110;52.386;16.940;2024-03-02T04:03:16;23.20;50.00
21891;DHT22;11110;52.386;16.940;2024-03-02T04:05:44;23.20;50.00
21891;DHT22;11110;52.386;16.940;2024-03-02T04:08:13;23.20;50.00
21891;DHT22;11110;52.386;16.940;2024-03-02T04:10:41;23.20;49.90
21891;DHT22;11110;52.386;16.940;2024-03-02T04:13:10;23.20;49.80
21891;DHT22;11110;52.386;16.940;2024-03-02T04:15:39;23.20;49.80
21891;DHT22;11110;52.386;16.940;2024-03-02T04:18:08;23.20;49.70
21891;DHT22;11110;52.386;16.940;2024-03-02T04:20:38;23.20;49.70
21891;DHT22;11110;52.386;16.940;2024-03-02T04:23:06;23.20;49.90
21891;DHT22;11110;52.386;16.940;2024-03-02T04:25:35;23.10;49.90
21891;DHT22;11110;52.386;16.940;2024-03-02T04:28:03;23.10;49.90
21891;DHT22;11110;52.386;16.940;2024-03-02T04:30:32;23.10;49.90
21891;DHT22;11110;52.386;16.940;2024-03-02T04:33:00;23.10;49.90
21891;DHT22;11110;52.386;16.940;2024-03-02T04:35:29;23.00;50.00
21891;DHT22;11110;52.386;16.940;2024-03-02T04:37:59;23.00;50.00
21891;DHT22;11110;52.386;16.940;2024-03-02T04:40:28;23.10;50.00
21891;DHT22;11110;52.386;16.940;2024-03-02T04:42:56;23.10;49.90
21891;DHT22;11110;52.386;16.940;2024-03-02T04:45:26;23.10;49.90
21891;DHT22;11110;52.386;16.940;2024-03-02T04:47:55;23.00;49.90
21891;DHT22;11110;52.386;16.940;2024-03-02T04:50:23;23.00;50.00
21891;DHT22;11110;52.386;16.940;2024-03-02T04:52:51;22.90;49.90
21891;DHT22;11110;52.386;16.940;2024-03-02T04:55:21;23.00;50.00
21891;DHT22;11110;52.386;16.940;2024-03-02T04:58:23;22.90;50.00
21891;DHT22;11110;52.386;16.940;2024-03-02T05:00:52;22.90;50.10
21891;DHT22;11110;52.386;16.940;2024-03-02T05:03:20;22.90;50.00
21891;DHT22;11110;52.386;16.940;2024-03-02T05:05:49;23.00;50.10
21891;DHT22;11110;52.386;16.940;2024-03-02T05:08:17;22.90;50.00
21891;DHT22;11110;52.386;16.940;2024-03-02T05:10:47;23.00;50.10
21891;DHT22;11110;52.386;16.940;2024-03-02T05:13:16;23.00;50.00
21891;DHT22;11110;52.386;16.940;2024-03-02T05:15:45;23.00;49.90
21891;DHT22;11110;52.386;16.940;2024-03-02T05:18:13;23.00;49.90
21891;DHT22;11110;52.386;16.940;2024-03-02T05:20:42;23.00;49.80
21891;DHT22;11110;52.386;16.940;2024-03-02T05:23:10;23.00;49.80
21891;DHT22;11110;52.386;16.940;2024-03-02T05:25:39;23.10;49.80
21891;DHT22;11110;52.386;16.940;2024-03-02T05:28:09;23.10;49.70
21891;DHT22;11110;52.386;16.940;2024-03-02T05:30:38;23.20;49.70
21891;DHT22;11110;52.386;16.940;2024-03-02T05:33:06;23.20;49.50
21891;DHT22;11110;52.386;16.940;2024-03-02T05:35:35;23.20;49.50
21891;DHT22;11110;52.386;16.940;2024-03-02T05:38:03;23.20;49.40
21891;DHT22;11110;52.386;16.940;2024-03-02T05:40:32;23.20;49.30
21891;DHT22;11110;52.386;16.940;2024-03-02T05:43:00;23.20;49.30
21891;DHT22;11110;52.386;16.940;2024-03-02T05:45:30;23.20;49.30
21891;DHT22;11110;52.386;16.940;2024-03-02T05:47:58;23.20;49.30
21891;DHT22;11110;52.386;16.940;2024-03-02T05:50:27;23.20;49.20
21891;DHT22;11110;52.386;16.940;2024-03-02T05:52:55;23.20;49.20
21891;DHT22;11110;52.386;16.940;2024-03-02T05:55:24;23.20;49.10
21891;DHT22;11110;52.386;16.940;2024-03-02T05:57:53;23.20;48.90
21891;DHT22;11110;52.386;16.940;2024-03-02T06:00:40;23.30;48.90
21891;DHT22;11110;52.386;16.940;2024-03-02T06:03:08;23.20;48.70
21891;DHT22;11110;52.386;16.940;2024-03-02T06:05:38;23.30;48.70
21891;DHT22;11110;52.386;16.940;2024-03-02T06:08:07;23.20;48.50
21891;DHT22;11110;52.386;16.940;2024-03-02T06:10:36;23.20;48.60
21891;DHT22;11110;52.386;16.940;2024-03-02T06:13:04;23.30;48.60
21891;DHT22;11110;52.386;16.940;2024-03-02T06:15:33;23.30;48.60
21891;DHT22;11110;52.386;16.940;2024-03-02T06:18:05;23.20;48.50
21891;DHT22;11110;52.386;16.940;2024-03-02T06:20:35;23.20;48.60
21891;DHT22;11110;52.386;16.940;2024-03-02T06:23:04;23.20;48.70
21891;DHT22;11110;52.386;16.940;2024-03-02T06:25:33;23.20;48.70
21891;DHT22;11110;52.386;16.940;2024-03-02T06:28:01;23.20;48.70
21891;DHT22;11110;52.386;16.940;2024-03-02T06:30:30;23.10;48.70
21891;DHT22;11110;52.386;16.940;2024-03-02T06:32:58;23.20;48.80
21891;DHT22;11110;52.386;16.940;2024-03-02T06:35:28;23.00;48.70
21891;DHT22;11110;52.386;16.940;2024-03-02T06:37:57;23.00;49.00
21891;DHT22;11110;52.386;16.940;2024-03-02T06:40:25;22.90;49.10
21891;DHT22;11110;52.386;16.940;2024-03-02T06:42:53;22.90;49.20
21891;DHT22;11110;52.386;16.940;2024-03-02T06:45:22;22.90;49.30
21891;DHT22;11110;52.386;16.940;2024-03-02T06:47:51;22.90;49.40
21891;DHT22;11110;52.386;16.940;2024-03-02T06:50:19;23.00;49.90
21891;DHT22;11110;52.386;16.940;2024-03-02T06:52:49;23.00;49.40
21891;DHT22;11110;52.386;16.940;2024-03-02T06:55:18;23.00;49.30
21891;DHT22;11110;52.386;16.940;2024-03-02T06:57:46;23.00;49.30
21891;DHT22;11110;52.386;16.940;2024-03-02T07:00:15;23.00;49.20
21891;DHT22;11110;52.386;16.940;2024-03-02T07:02:45;23.00;48.60
21891;DHT22;11110;52.386;16.940;2024-03-02T07:05:14;23.00;49.20
21891;DHT22;11110;52.386;16.940;2024-03-02T07:07:42;23.10;49.20
21891;DHT22;11110;52.386;16.940;2024-03-02T07:10:12;23.10;49.20
21891;DHT22;11110;52.386;16.940;2024-03-02T07:12:40;23.10;49.20
21891;DHT22;11110;52.386;16.940;2024-03-02T07:15:09;23.10;49.20
21891;DHT22;11110;52.386;16.940;2024-03-02T07:17:57;23.10;49.20
21891;DHT22;11110;52.386;16.940;2024-03-02T07:20:28;23.00;49.30
21891;DHT22;11110;52.386;16.940;2024-03-02T07:22:57;23.10;49.30
21891;DHT22;11110;52.386;16.940;2024-03-02T07:25:27;23.10;49.40
21891;DHT22;11110;52.386;16.940;2024-03-02T07:27:59;23.20;49.30
21891;DHT22;11110;52.386;16.940;2024-03-02T07:30:29;23.20;49.30
21891;DHT22;11110;52.386;16.940;2024-03-02T07:33:00;23.20;49.30
21891;DHT22;11110;52.386;16.940;2024-03-02T07:35:29;23.30;49.30
21891;DHT22;11110;52.386;16.940;2024-03-02T07:37:59;23.40;49.20
21891;DHT22;11110;52.386;16.940;2024-03-02T07:40:29;23.40;49.00
21891;DHT22;11110;52.386;16.940;2024-03-02T07:42:58;23.50;49.10
21891;DHT22;11110;52.386;16.940;2024-03-02T07:45:29;23.60;49.10
21891;DHT22;11110;52.386;16.940;2024-03-02T07:47:57;23.60;48.80
21891;DHT22;11110;52.386;16.940;2024-03-02T07:50:26;23.70;49.50
21891;DHT22;11110;52.386;16.940;2024-03-02T07:52:54;23.70;48.80
21891;DHT22;11110;52.386;16.940;2024-03-02T07:55:23;23.80;48.70
21891;DHT22;11110;52.386;16.940;2024-03-02T07:57:53;23.90;48.50
21891;DHT22;11110;52.386;16.940;2024-03-02T08:00:22;23.90;48.50
21891;DHT22;11110;52.386;16.940;2024-03-02T08:02:51;23.90;48.50
21891;DHT22;11110;52.386;16.940;2024-03-02T08:05:21;23.90;48.50
21891;DHT22;11110;52.386;16.940;2024-03-02T08:07:49;23.90;48.70
21891;DHT22;11110;52.386;16.940;2024-03-02T08:10:20;23.90;48.70
21891;DHT22;11110;52.386;16.940;2024-03-02T08:12:48;24.10;48.80
21891;DHT22;11110;52.386;16.940;2024-03-02T08:15:18;24.00;48.80
21891;DHT22;11110;52.386;16.940;2024-03-02T08:17:47;24.00;48.90
21891;DHT22;11110;52.386;16.940;2024-03-02T08:20:17;24.00;49.00
21891;DHT22;11110;52.386;16.940;2024-03-02T08:22:46;24.00;49.00
21891;DHT22;11110;52.386;16.940;2024-03-02T08:25:15;24.10;48.90
21891;DHT22;11110;52.386;16.940;2024-03-02T08:27:44;24.20;49.00
21891;DHT22;11110;52.386;16.940;2024-03-02T08:30:13;24.20;48.80
21891;DHT22;11110;52.386;16.940;2024-03-02T08:32:43;24.30;48.70
21891;DHT22;11110;52.386;16.940;2024-03-02T08:35:13;24.40;48.50
21891;DHT22;11110;52.386;16.940;2024-03-02T08:37:41;24.40;48.40
21891;DHT22;11110;52.386;16.940;2024-03-02T08:40:11;24.50;48.40
21891;DHT22;11110;52.386;16.940;2024-03-02T08:42:44;24.60;48.20
21891;DHT22;11110;52.386;16.940;2024-03-02T08:45:14;24.60;48.10
21891;DHT22;11110;52.386;16.940;2024-03-02T08:47:45;24.70;47.90
21891;DHT22;11110;52.386;16.940;2024-03-02T08:50:14;24.70;47.80
21891;DHT22;11110;52.386;16.940;2024-03-02T08:52:42;24.80;47.60
21891;DHT22;11110;52.386;16.940;2024-03-02T08:55:11;24.80;47.70
21891;DHT22;11110;52.386;16.940;2024-03-02T08:57:40;24.90;47.60
21891;DHT22;11110;52.386;16.940;2024-03-02T09:00:10;25.00;47.60
21891;DHT22;11110;52.386;16.940;2024-03-02T09:02:39;25.00;47.60
21891;DHT22;11110;52.386;16.940;2024-03-02T09:05:09;25.00;47.50
21891;DHT22;11110;52.386;16.940;2024-03-02T09:07:37;25.10;47.40
21891;DHT22;11110;52.386;16.940;2024-03-02T09:10:07;25.10;47.50
21891;DHT22;11110;52.386;16.940;2024-03-02T09:12:37;25.20;47.60
21891;DHT22;11110;52.386;16.940;2024-03-02T09:15:06;25.20;47.40
21891;DHT22;11110;52.386;16.940;2024-03-02T09:17:35;25.30;47.30
21891;DHT22;11110;52.386;16.940;2024-03-02T09:20:05;25.40;47.30
21891;DHT22;11110;52.386;16.940;2024-03-02T09:22:34;25.50;47.30
21891;DHT22;11110;52.386;16.940;2024-03-02T09:25:04;25.50;47.20
21891;DHT22;11110;52.386;16.940;2024-03-02T09:27:32;25.60;47.20
21891;DHT22;11110;52.386;16.940;2024-03-02T09:30:01;25.70;46.90
21891;DHT22;11110;52.386;16.940;2024-03-02T09:32:29;25.70;46.80
21891;DHT22;11110;52.386;16.940;2024-03-02T09:34:58;25.80;47.00
21891;DHT22;11110;52.386;16.940;2024-03-02T09:37:27;25.80;46.80
21891;DHT22;11110;52.386;16.940;2024-03-02T09:39:57;25.90;46.90
21891;DHT22;11110;52.386;16.940;2024-03-02T09:42:26;26.00;47.20
21891;DHT22;11110;52.386;16.940;2024-03-02T09:44:55;25.90;45.90
21891;DHT22;11110;52.386;16.940;2024-03-02T09:47:27;26.10;46.60
21891;DHT22;11110;52.386;16.940;2024-03-02T09:49:56;26.00;46.50
21891;DHT22;11110;52.386;16.940;2024-03-02T09:52:25;25.90;46.80
21891;DHT22;11110;52.386;16.940;2024-03-02T09:54:59;26.00;46.70
21891;DHT22;11110;52.386;16.940;2024-03-02T09:57:37;26.70;47.00
21891;DHT22;11110;52.386;16.940;2024-03-02T10:00:08;26.00;46.80
21891;DHT22;11110;52.386;16.940;2024-03-02T10:02:41;26.10;46.80
21891;DHT22;11110;52.386;16.940;2024-03-02T10:05:10;26.10;46.80
21891;DHT22;11110;52.386;16.940;2024-03-02T10:07:39;26.10;46.60
21891;DHT22;11110;52.386;16.940;2024-03-02T10:10:16;26.30;46.60
21891;DHT22;11110;52.386;16.940;2024-03-02T10:12:44;26.30;46.40
21891;DHT22;11110;52.386;16.940;2024-03-02T10:15:13;26.30;46.20
21891;DHT22;11110;52.386;16.940;2024-03-02T10:17:41;26.20;46.20
21891;DHT22;11110;52.386;16.940;2024-03-02T10:20:23;26.30;46.20
21891;DHT22;11110;52.386;16.940;2024-03-02T10:22:51;26.40;46.50
21891;DHT22;11110;52.386;16.940;2024-03-02T10:25:31;26.30;46.40
21891;DHT22;11110;52.386;16.940;2024-03-02T10:28:17;26.40;47.00
21891;DHT22;11110;52.386;16.940;2024-03-02T10:30:47;26.40;47.00
21891;DHT22;11110;52.386;16.940;2024-03-02T10:33:17;26.40;46.60
21891;DHT22;11110;52.386;16.940;2024-03-02T10:35:48;26.50;46.40
21891;DHT22;11110;52.386;16.940;2024-03-02T10:38:17;26.50;47.00
21891;DHT22;11110;52.386;16.940;2024-03-02T10:40:48;26.50;45.90
21891;DHT22;11110;52.386;16.940;2024-03-02T10:43:17;26.70;45.90
21891;DHT22;11110;52.386;16.940;2024-03-02T10:45:49;26.80;45.80
21891;DHT22;11110;52.386;16.940;2024-03-02T10:48:18;26.80;46.10
21891;DHT22;11110;52.386;16.940;2024-03-02T10:50:49;26.90;45.60
21891;DHT22;11110;52.386;16.940;2024-03-02T10:53:18;27.00;45.50
21891;DHT22;11110;52.386;16.940;2024-03-02T10:55:53;27.10;45.40
21891;DHT22;11110;52.386;16.940;2024-03-02T10:58:31;27.10;45.20
21891;DHT22;11110;52.386;16.940;2024-03-02T11:01:02;27.10;45.90
21891;DHT22;11110;52.386;16.940;2024-03-02T11:03:35;27.20;45.50
21891;DHT22;11110;52.386;16.940;2024-03-02T11:06:07;27.30;45.30
21891;DHT22;11110;52.386;16.940;2024-03-02T11:08:38;27.30;45.80
21891;DHT22;11110;52.386;16.940;2024-03-02T11:11:15;27.40;46.00
21891;DHT22;11110;52.386;16.940;2024-03-02T11:13:49;27.40;45.70
21891;DHT22;11110;52.386;16.940;2024-03-02T11:16:24;27.50;46.50
21891;DHT22;11110;52.386;16.940;2024-03-02T11:18:54;27.60;45.60
21891;DHT22;11110;52.386;16.940;2024-03-02T11:21:23;27.70;45.70
21891;DHT22;11110;52.386;16.940;2024-03-02T11:23:51;27.70;45.20
21891;DHT22;11110;52.386;16.940;2024-03-02T11:26:22;27.80;44.90
21891;DHT22;11110;52.386;16.940;2024-03-02T11:28:51;27.90;45.20
21891;DHT22;11110;52.386;16.940;2024-03-02T11:31:20;28.00;45.40
21891;DHT22;11110;52.386;16.940;2024-03-02T11:33:48;28.10;44.90
21891;DHT22;11110;52.386;16.940;2024-03-02T11:36:17;28.20;44.40
21891;DHT22;11110;52.386;16.940;2024-03-02T11:38:45;28.30;44.60
21891;DHT22;11110;52.386;16.940;2024-03-02T11:41:15;28.30;44.10
21891;DHT22;11110;52.386;16.940;2024-03-02T11:43:46;28.20;44.00
21891;DHT22;11110;52.386;16.940;2024-03-02T11:46:16;28.20;44.00
21891;DHT22;11110;52.386;16.940;2024-03-02T11:48:46;28.10;43.80
21891;DHT22;11110;52.386;16.940;2024-03-02T11:51:15;28.20;44.20
21891;DHT22;11110;52.386;16.940;2024-03-02T11:53:45;28.20;44.10
21891;DHT22;11110;52.386;16.940;2024-03-02T11:56:15;28.20;43.80
21891;DHT22;11110;52.386;16.940;2024-03-02T11:58:46;28.30;43.80
21891;DHT22;11110;52.386;16.940;2024-03-02T12:01:16;28.30;43.50
21891;DHT22;11110;52.386;16.940;2024-03-02T12:03:45;28.30;43.30
21891;DHT22;11110;52.386;16.940;2024-03-02T12:06:15;28.40;43.70
21891;DHT22;11110;52.386;16.940;2024-03-02T12:08:46;28.40;43.80
21891;DHT22;11110;52.386;16.940;2024-03-02T12:11:14;28.40;43.20
21891;DHT22;11110;52.386;16.940;2024-03-02T12:13:53;28.40;43.10
21891;DHT22;11110;52.386;16.940;2024-03-02T12:16:24;28.50;43.10
21891;DHT22;11110;52.386;16.940;2024-03-02T12:18:52;28.50;43.10
21891;DHT22;11110;52.386;16.940;2024-03-02T12:21:21;28.60;43.30
21891;DHT22;11110;52.386;16.940;2024-03-02T12:23:50;28.40;42.90
21891;DHT22;11110;52.386;16.940;2024-03-02T12:26:18;28.50;43.00
21891;DHT22;11110;52.386;16.940;2024-03-02T12:28:47;28.50;43.00
21891;DHT22;11110;52.386;16.940;2024-03-02T12:31:18;28.50;43.00
21891;DHT22;11110;52.386;16.940;2024-03-02T12:33:47;28.60;43.20
21891;DHT22;11110;52.386;16.940;2024-03-02T12:36:16;28.50;43.00
21891;DHT22;11110;52.386;16.940;2024-03-02T12:38:44;28.60;42.90
21891;DHT22;11110;52.386;16.940;2024-03-02T12:41:14;28.60;42.80
21891;DHT22;11110;52.386;16.940;2024-03-02T12:43:43;28.60;42.70
21891;DHT22;11110;52.386;16.940;2024-03-02T12:46:12;28.60;42.70
21891;DHT22;11110;52.386;16.940;2024-03-02T12:48:41;28.60;42.80
21891;DHT22;11110;52.386;16.940;2024-03-02T12:51:10;28.50;42.50
21891;DHT22;11110;52.386;16.940;2024-03-02T12:53:39;28.50;42.50
21891;DHT22;11110;52.386;16.940;2024-03-02T12:56:08;28.50;42.50
21891;DHT22;11110;52.386;16.940;2024-03-02T12:58:39;28.50;43.10
21891;DHT22;11110;52.386;16.940;2024-03-02T13:01:09;28.60;42.80
21891;DHT22;11110;52.386;16.940;2024-03-02T13:03:38;28.60;42.70
21891;DHT22;11110;52.386;16.940;2024-03-02T13:06:08;28.60;42.60
21891;DHT22;11110;52.386;16.940;2024-03-02T13:08:37;28.60;42.40
21891;DHT22;11110;52.386;16.940;2024-03-02T13:11:06;28.60;42.70
21891;DHT22;11110;52.386;16.940;2024-03-02T13:13:35;28.60;42.40
21891;DHT22;11110;52.386;16.940;2024-03-02T13:16:04;28.50;42.50
21891;DHT22;11110;52.386;16.940;2024-03-02T13:18:35;28.60;42.40
21891;DHT22;11110;52.386;16.940;2024-03-02T13:21:04;28.60;42.50
21891;DHT22;11110;52.386;16.940;2024-03-02T13:23:34;28.50;42.40
21891;DHT22;11110;52.386;16.940;2024-03-02T13:26:05;28.50;42.50
21891;DHT22;11110;52.386;16.940;2024-03-02T13:28:34;28.50;42.50
21891;DHT22;11110;52.386;16.940;2024-03-02T13:31:04;28.50;42.30
21891;DHT22;11110;52.386;16.940;2024-03-02T13:33:33;28.40;42.60
21891;DHT22;11110;52.386;16.940;2024-03-02T13:36:02;28.30;42.70
21891;DHT22;11110;52.386;16.940;2024-03-02T13:38:30;28.30;42.80
21891;DHT22;11110;52.386;16.940;2024-03-02T13:41:00;28.30;42.80
21891;DHT22;11110;52.386;16.940;2024-03-02T13:43:29;28.30;42.60
21891;DHT22;11110;52.386;16.940;2024-03-02T13:45:59;28.30;42.40
21891;DHT22;11110;52.386;16.940;2024-03-02T13:48:28;28.20;42.30
21891;DHT22;11110;52.386;16.940;2024-03-02T13:50:56;28.20;42.20
21891;DHT22;11110;52.386;16.940;2024-03-02T13:53:25;28.10;42.00
21891;DHT22;11110;52.386;16.940;2024-03-02T13:55:53;28.00;41.90
21891;DHT22;11110;52.386;16.940;2024-03-02T13:58:23;28.00;42.00
21891;DHT22;11110;52.386;16.940;2024-03-02T14:00:52;28.00;42.80
21891;DHT22;11110;52.386;16.940;2024-03-02T14:03:20;28.00;42.00
21891;DHT22;11110;52.386;16.940;2024-03-02T14:05:51;28.00;42.00
21891;DHT22;11110;52.386;16.940;2024-03-02T14:08:20;28.00;42.00
21891;DHT22;11110;52.386;16.940;2024-03-02T14:10:48;27.80;41.80
21891;DHT22;11110;52.386;16.940;2024-03-02T14:13:17;27.90;41.90
21891;DHT22;11110;52.386;16.940;2024-03-02T14:15:47;27.80;42.10
21891;DHT22;11110;52.386;16.940;2024-03-02T14:18:16;27.80;42.30
21891;DHT22;11110;52.386;16.940;2024-03-02T14:20:44;27.80;42.60
21891;DHT22;11110;52.386;16.940;2024-03-02T14:23:15;27.70;42.60
21891;DHT22;11110;52.386;16.940;2024-03-02T14:25:44;27.80;43.00
21891;DHT22;11110;52.386;16.940;2024-03-02T14:28:12;27.70;42.70
21891;DHT22;11110;52.386;16.940;2024-03-02T14:31:05;27.70;42.60
21891;DHT22;11110;52.386;16.940;2024-03-02T14:33:33;27.60;42.50
21891;DHT22;11110;52.386;16.940;2024-03-02T14:36:03;27.60;42.50
21891;DHT22;11110;52.386;16.940;2024-03-02T14:38:33;27.60;42.40
21891;DHT22;11110;52.386;16.940;2024-03-02T14:41:02;27.60;42.60
21891;DHT22;11110;52.386;16.940;2024-03-02T14:43:30;27.60;42.40
21891;DHT22;11110;52.386;16.940;2024-03-02T14:45:59;27.60;42.40
21891;DHT22;11110;52.386;16.940;2024-03-02T14:48:29;27.60;42.70
21891;DHT22;11110;52.386;16.940;2024-03-02T14:50:58;27.60;42.60
21891;DHT22;11110;52.386;16.940;2024-03-02T14:53:26;27.50;42.40
21891;DHT22;11110;52.386;16.940;2024-03-02T14:55:55;27.50;42.50
21891;DHT22;11110;52.386;16.940;2024-03-02T14:58:24;27.40;42.50
21891;DHT22;11110;52.386;16.940;2024-03-02T15:00:54;27.40;42.70
21891;DHT22;11110;52.386;16.940;2024-03-02T15:03:22;27.40;43.20
21891;DHT22;11110;52.386;16.940;2024-03-02T15:05:52;27.40;43.00
21891;DHT22;11110;52.386;16.940;2024-03-02T15:08:21;27.30;43.10
21891;DHT22;11110;52.386;16.940;2024-03-02T15:10:49;27.30;43.40
21891;DHT22;11110;52.386;16.940;2024-03-02T15:13:18;27.30;43.60
21891;DHT22;11110;52.386;16.940;2024-03-02T15:15:46;27.20;43.60
21891;DHT22;11110;52.386;16.940;2024-03-02T15:18:15;27.20;44.40
21891;DHT22;11110;52.386;16.940;2024-03-02T15:20:46;27.20;43.90
21891;DHT22;11110;52.386;16.940;2024-03-02T15:23:16;27.10;44.00
21891;DHT22;11110;52.386;16.940;2024-03-02T15:25:44;27.10;44.40
21891;DHT22;11110;52.386;16.940;2024-03-02T15:28:13;27.00;44.50
21891;DHT22;11110;52.386;16.940;2024-03-02T15:30:42;27.00;44.50